Data for 10/06/2015

Time Sea-Level Adjusted Pressure Absolute Pressure Temperature Relative Humidity Dew Point   
(mb) (inHg) (mb) (inHg) (C) (F) (%) (C) (F)
00:05 1022 30.18 851 25.13 6.9 44.4 69 1.7 35.1
00:10 1022 30.18 851 25.13 7.2 45 66 1.3 34.3
00:15 1022 30.18 851 25.13 7.7 45.8 66 1.6 35
00:20 1022 30.18 851 25.13 7.6 45.7 65 1.5 34.8
00:25 1022 30.18 851 25.13 7.7 45.8 66 1.7 35.1
00:30 1022 30.18 851 25.13 7.6 45.7 66 1.6 34.9
00:35 1022 30.18 851 25.13 7.7 45.9 65 1.6 35
00:40 1022 30.18 851 25.13 7.6 45.7 66 1.6 34.9
00:45 1022 30.18 851 25.13 7.3 45.1 66 1.4 34.6
00:50 1022 30.18 851 25.13 7.2 45 66 1.3 34.3
00:55 1022 30.18 851 25.13 7.2 45 66 1.3 34.3
01:00 1022 30.18 851 25.13 7.2 44.9 66 1.3 34.4
01:05 1022 30.18 851 25.13 7.3 45.1 65 1.1 34
01:10 1022 30.18 851 25.13 7.7 45.9 63 1.2 34.2
01:15 1022 30.18 851 25.13 7.4 45.3 66 1.6 34.8
01:20 1022 30.18 851 25.13 7.2 45 66 1.3 34.3
01:25 1022 30.18 851 25.13 7.1 44.7 67 1.4 34.5
01:30 1022 30.18 851 25.13 7 44.6 67 1.4 34.5
01:35 1022 30.18 851 25.13 7 44.6 68 1.5 34.7
01:40 1022 30.18 851 25.13 7.2 45 67 1.6 34.9
01:45 1022 30.18 851 25.13 7.3 45.2 67 1.7 35
01:50 1022 30.18 851 25.13 7.2 44.9 67 1.4 34.6
01:55 1022 30.18 851 25.13 7.4 45.2 67 1.7 35
02:00 1022 30.18 851 25.13 7 44.6 68 1.4 34.6
02:05 1022 30.18 851 25.13 6.8 44.3 69 1.4 34.6
02:10 1022 30.18 851 25.13 7 44.6 67 1.4 34.5
02:15 1022 30.18 851 25.13 6.8 44.2 68 1.3 34.4
02:20 1022 30.18 851 25.13 6.4 43.6 70 1.3 34.4
02:25 1022 30.18 851 25.13 6.4 43.5 69 1.1 34
02:30 1022 30.18 851 25.13 7.1 44.8 66 1.2 34.2
02:35 1022 30.18 851 25.13 7.4 45.4 66 1.6 34.8
02:40 1022 30.18 851 25.13 7.3 45.1 66 1.4 34.6
02:45 1022 30.18 851 25.13 6.8 44.2 70 1.6 34.9
02:50 1022 30.18 852 25.16 6.6 43.9 69 1.3 34.3
02:55 1022 30.18 852 25.16 6.7 44 69 1.4 34.4
03:00 1022 30.18 852 25.16 6.7 44 69 1.4 34.5
03:05 1022 30.18 852 25.16 6.6 43.8 70 1.6 34.8
03:10 1022 30.18 851 25.13 6.4 43.5 70 1.3 34.4
03:15 1022 30.18 852 25.16 6.2 43.2 72 1.5 34.7
03:20 1022 30.18 852 25.16 5.8 42.4 75 1.6 35
03:25 1022 30.18 852 25.16 5.2 41.3 75 1.2 34.2
03:30 1022 30.18 852 25.16 5.4 41.8 74 1.2 34.1
03:35 1022 30.18 852 25.16 5.9 42.6 73 1.4 34.5
03:40 1022 30.18 852 25.16 6.1 43 72 1.4 34.5
03:45 1022 30.18 852 25.16 5.9 42.7 75 1.8 35.2
03:50 1022 30.18 852 25.16 5.5 41.9 75 1.4 34.5
03:55 1022 30.18 852 25.16 5 41.1 78 1.4 34.6
04:00 1023 30.21 852 25.16 5.1 41.1 77 1.3 34.4
04:05 1023 30.21 852 25.16 5.1 41.3 76 1.4 34.4
04:10 1023 30.21 852 25.16 4.7 40.4 78 1.2 34.2
04:15 1023 30.21 852 25.16 4.7 40.4 78 1.1 34.1
04:20 1023 30.21 852 25.16 5.3 41.5 75 1.2 34.1
04:25 1023 30.21 852 25.16 6.1 42.9 73 1.6 34.8
04:30 1023 30.21 852 25.16 5.8 42.5 74 1.6 34.9
04:35 1023 30.21 852 25.16 5.6 42.1 75 1.5 34.7
04:40 1023 30.21 852 25.16 6 42.8 74 1.7 35
04:45 1023 30.21 852 25.16 6 42.7 73 1.5 34.8
04:50 1023 30.21 852 25.16 5.8 42.4 74 1.5 34.7
04:55 1023 30.21 852 25.16 5.6 42.1 75 1.5 34.7
05:00 1023 30.21 852 25.16 5 41 76 1.1 34
05:05 1023 30.21 852 25.16 5 41 77 1.3 34.4
05:10 1023 30.21 852 25.16 4.8 40.6 77 1.1 34.1
05:15 1023 30.21 852 25.16 4.6 40.3 78 1.1 34
05:20 1023 30.21 852 25.16 4.8 40.6 77 1.2 34.1
05:25 1023 30.21 852 25.16 5.4 41.7 76 1.4 34.6
05:30 1023 30.21 852 25.16 5.6 42.1 75 1.5 34.7
05:35 1023 30.21 852 25.16 5.6 42 75 1.4 34.6
05:40 1023 30.21 852 25.16 5.5 41.9 75 1.4 34.5
05:45 1023 30.21 852 25.16 5.2 41.3 78 1.6 34.9
05:50 1023 30.21 852 25.16 5.3 41.6 75 1.2 34.2
05:55 1023 30.21 852 25.16 5.2 41.3 76 1.2 34.2
06:00 1023 30.21 852 25.16 4.9 40.9 78 1.4 34.5
06:05 1023 30.21 852 25.16 5.2 41.3 76 1.2 34.2
06:10 1023 30.21 852 25.16 5.2 41.4 75 1.1 34
06:15 1023 30.21 852 25.16 5.2 41.3 76 1.4 34.4
06:20 1023 30.21 852 25.16 5.2 41.3 76 1.3 34.3
06:25 1023 30.21 852 25.16 5.2 41.3 76 1.3 34.3
06:30 1023 30.21 852 25.16 5.5 41.9 75 1.4 34.6
06:35 1023 30.21 852 25.16 5.5 41.9 75 1.4 34.5
06:40 1023 30.21 852 25.16 5.4 41.7 75 1.3 34.4
06:45 1023 30.21 852 25.16 5.2 41.4 76 1.3 34.3
06:50 1023 30.21 852 25.16 5 41.1 76 1.2 34.1
06:55 1023 30.21 852 25.16 5.1 41.2 75 1.1 34
07:00 1023 30.21 852 25.16 5.5 41.8 74 1.2 34.1
07:05 1023 30.21 852 25.16 5.6 42.1 74 1.4 34.6
07:10 1023 30.21 852 25.16 5.8 42.4 73 1.4 34.4
07:15 1023 30.21 852 25.16 5.7 42.3 73 1.3 34.3
07:20 1023 30.21 852 25.16 5.8 42.4 73 1.3 34.3
07:25 1023 30.21 853 25.19 5.7 42.2 73 1.2 34.2
07:30 1023 30.21 853 25.19 5.8 42.5 73 1.3 34.3
07:35 1023 30.21 853 25.19 6.2 43.2 71 1.5 34.6
07:40 1023 30.21 853 25.19 6.6 43.9 70 1.5 34.7
07:45 1023 30.21 853 25.19 6.9 44.4 69 1.6 34.8
07:50 1023 30.21 853 25.19 7.3 45.1 68 1.7 35.1
07:55 1023 30.21 853 25.19 7.6 45.7 67 1.9 35.4
08:00 1023 30.21 853 25.19 8.2 46.7 66 2.3 36.1
08:05 1024 30.24 853 25.19 8.6 47.4 65 2.3 36.2
08:10 1024 30.24 853 25.19 8.6 47.6 65 2.5 36.4
08:15 1024 30.24 853 25.19 9.1 48.3 63 2.4 36.4
08:20 1024 30.24 853 25.19 9.6 49.2 63 2.8 37
08:25 1024 30.24 853 25.19 9.5 49 63 2.9 37.2
08:30 1024 30.24 853 25.19 9.6 49.2 62 2.7 36.9
08:35 1024 30.24 853 25.19 10.2 50.4 60 2.9 37.3
08:40 1024 30.24 853 25.19 10.6 51.1 59 2.9 37.2
08:45 1024 30.24 853 25.19 11.3 52.3 58 3.3 38
08:50 1024 30.24 853 25.19 11.4 52.5 57 3.2 37.8
08:55 1024 30.24 853 25.19 11.9 53.5 56 3.5 38.2
09:00 1024 30.24 853 25.19 12 53.5 54 3.1 37.6
09:05 1024 30.24 853 25.19 12.1 53.7 55 3.5 38.3
09:10 1024 30.24 853 25.19 12.1 53.8 55 3.5 38.3
09:15 1024 30.24 853 25.19 12.3 54.1 53 3.1 37.6
09:20 1024 30.24 853 25.19 12 53.6 54 3.1 37.7
09:25 1024 30.24 853 25.19 12.1 53.8 53 2.8 37.1
09:30 1024 30.24 853 25.19 11.5 52.8 55 2.7 36.9
09:35 1024 30.24 853 25.19 12 53.5 51 2.1 35.9
09:40 1024 30.24 853 25.19 12.7 54.9 49 2.5 36.5
09:45 1024 30.24 853 25.19 13 55.3 50 2.8 37
09:50 1024 30.24 853 25.19 12.8 55 48 2.1 35.8
09:55 1024 30.24 853 25.19 12.8 55.1 48 2.3 36.1
10:00 1024 30.24 853 25.19 12.7 54.9 50 2.7 36.8
10:05 1023 30.21 853 25.19 12.4 54.2 49 2.1 35.7
10:10 1023 30.21 853 25.19 12.9 55.2 47 2.1 35.7
10:15 1023 30.21 853 25.19 13.6 56.5 46 2.2 36
10:20 1023 30.21 853 25.19 13.4 56.1 48 2.6 36.7
10:25 1023 30.21 853 25.19 13.1 55.5 49 2.6 36.6
10:30 1023 30.21 853 25.19 12.8 55 48 2.2 35.9
10:35 1023 30.21 853 25.19 13.1 55.5 49 2.6 36.7
10:40 1023 30.21 853 25.19 14.1 57.4 44 2.3 36.1
10:45 1023 30.21 852 25.16 14.9 58.9 42 2.2 36
10:50 1023 30.21 852 25.16 15.4 59.7 41 2.5 36.4
10:55 1023 30.21 852 25.16 15.4 59.8 41 2.2 36
11:00 1023 30.21 852 25.16 15.5 59.8 41 2.2 36
11:05 1023 30.21 852 25.16 15.5 60 41 2.3 36.2
11:10 1023 30.21 852 25.16 16.3 61.3 38 2 35.6
11:15 1023 30.21 852 25.16 15.9 60.7 41 2.7 36.8
11:20 1023 30.21 852 25.16 15.5 60 40 2.1 35.8
11:25 1023 30.21 852 25.16 16 60.8 39 2.1 35.8
11:30 1023 30.21 852 25.16 16.6 61.8 38 2.2 36
11:35 1023 30.21 852 25.16 16.8 62.2 36 1.9 35.3
11:40 1023 30.21 852 25.16 16.8 62.3 39 3 37.4
11:45 1023 30.21 852 25.16 16.6 62 37 1.9 35.4
11:50 1023 30.21 852 25.16 17.1 62.8 37 2.4 36.4
11:55 1023 30.21 852 25.16 17.1 62.7 37 2.3 36.1
12:00 1023 30.21 852 25.16 17.5 63.5 34 1.6 34.9
12:05 1022 30.18 852 25.16 17.9 64.2 34 2.1 35.8
12:10 1022 30.18 852 25.16 18.3 64.9 34 2.1 35.7
12:15 1022 30.18 852 25.16 18.5 65.2 33 2.2 35.9
12:20 1022 30.18 852 25.16 18.4 65.1 34 2.4 36.3
12:25 1022 30.18 851 25.13 18.1 64.5 34 1.9 35.5
12:30 1022 30.18 851 25.13 18.7 65.7 32 2 35.5
12:35 1022 30.18 851 25.13 19.1 66.3 31 1.6 35
12:40 1022 30.18 851 25.13 18.9 66.1 32 1.9 35.4
12:45 1022 30.18 851 25.13 18.7 65.7 31 1.5 34.7
12:50 1022 30.18 851 25.13 19.3 66.7 31 1.8 35.2
12:55 1022 30.18 851 25.13 19.7 67.5 31 2 35.7
13:00 1022 30.18 851 25.13 19.8 67.7 30 1.8 35.2
13:05 1022 30.18 851 25.13 20.3 68.6 29 1.9 35.4
13:10 1022 30.18 851 25.13 20.6 69.1 30 2.7 36.9
13:15 1022 30.18 851 25.13 20.3 68.5 29 1.8 35.3
13:20 1022 30.18 851 25.13 20.3 68.6 29 1.6 35
13:25 1022 30.18 851 25.13 19.8 67.7 30 1.7 35.1
13:30 1021 30.15 851 25.13 19.6 67.2 30 1.7 35
13:35 1021 30.15 850 25.1 19.7 67.5 28 0.9 33.6
13:40 1021 30.15 850 25.1 20.5 68.8 27 1.1 34.1
13:45 1021 30.15 850 25.1 21.2 70.1 25 0.6 33.2
13:50 1021 30.15 850 25.1 21.4 70.6 26 1.5 34.8
13:55 1021 30.15 850 25.1 21.4 70.5 25 0.5 32.9
14:00 1021 30.15 850 25.1 21.7 71 23 0.1 32.1
14:05 1021 30.15 850 25.1 21.9 71.4 25 1 33.8
14:10 1021 30.15 850 25.1 21.7 71 26 1.3 34.4
14:15 1021 30.15 850 25.1 21.6 70.9 24 0.3 32.5
14:20 1021 30.15 850 25.1 21.7 71 25 0.8 33.5
14:25 1021 30.15 850 25.1 21.4 70.4 25 0.6 33.1
14:30 1021 30.15 850 25.1 21.9 71.5 25 1.2 34.1
14:35 1021 30.15 850 25.1 22 71.5 23 0.2 32.3
14:40 1021 30.15 850 25.1 22.1 71.8 23 0 32.1
14:45 1021 30.15 850 25.1 22.1 71.7 21 -0.9 30.3
14:50 1021 30.15 850 25.1 22.3 72.1 21 -0.9 30.3
14:55 1021 30.15 850 25.1 22.7 72.9 20 -1.5 29.3
15:00 1021 30.15 850 25.1 22.9 73.2 20 -1 30.3
15:05 1020 30.12 850 25.1 22.4 72.4 21 -0.8 30.5
15:10 1020 30.12 850 25.1 21.4 70.6 22 -0.7 30.7
15:15 1020 30.12 850 25.1 21.7 71 22 -1 30.1
15:20 1020 30.12 850 25.1 22.2 72 20 -1.3 29.7
15:25 1020 30.12 850 25.1 22.4 72.3 19 -1.9 28.5
15:30 1020 30.12 850 25.1 22.4 72.4 19 -2 28.3
15:35 1020 30.12 850 25.1 22.5 72.5 19 -1.8 28.8
15:40 1020 30.12 849 25.07 22.7 72.8 18 -2.5 27.4
15:45 1020 30.12 849 25.07 22.8 73 19 -2 28.5
15:50 1020 30.12 849 25.07 22.5 72.5 19 -1.8 28.8
15:55 1020 30.12 849 25.07 21.4 70.6 20 -2 28.4
16:00 1020 30.12 849 25.07 21.8 71.2 20 -1.9 28.6
16:05 1020 30.12 849 25.07 22.1 71.7 19 -2.4 27.7
16:10 1020 30.12 849 25.07 22.4 72.3 18 -3 26.5
16:15 1020 30.12 849 25.07 22.7 72.8 19 -1.9 28.5
16:20 1020 30.12 849 25.07 22.9 73.3 18 -2.2 28
16:25 1020 30.12 849 25.07 23 73.3 18 -2.1 28.2
16:30 1020 30.12 849 25.07 22.6 72.7 19 -2.1 28.1
16:35 1020 30.12 849 25.07 22.7 72.8 19 -1.7 29
16:40 1020 30.12 849 25.07 22.4 72.3 19 -2.4 27.7
16:45 1020 30.12 849 25.07 22.5 72.5 18 -2.6 27.4
16:50 1020 30.12 849 25.07 22.6 72.6 18 -2.9 26.7
16:55 1020 30.12 849 25.07 22.6 72.6 18 -2.7 27.2
17:00 1020 30.12 849 25.07 22.2 71.9 19 -2 28.4
17:05 1020 30.12 849 25.07 21.2 70.1 25 0.7 33.2
17:10 1020 30.12 849 25.07 20.6 69.1 24 -0.4 31.3
17:15 1020 30.12 849 25.07 20.8 69.4 28 1.6 34.8
17:20 1020 30.12 849 25.07 20.8 69.4 24 -0.4 31.3
17:25 1020 30.12 849 25.07 20.6 69 26 0.7 33.3
17:30 1020 30.12 849 25.07 20 68.1 28 0.9 33.7
17:35 1020 30.12 849 25.07 19.8 67.7 28 0.8 33.5
17:40 1020 30.12 849 25.07 19.5 67.2 29 1.3 34.4
17:45 1020 30.12 849 25.07 18.6 65.4 32 1.8 35.3
17:50 1020 30.12 849 25.07 17.8 64 37 3.1 37.5
17:55 1020 30.12 849 25.07 16.5 61.7 42 3.7 38.7
18:00 1020 30.12 849 25.07 15.7 60.3 40 2.4 36.4
18:05 1020 30.12 849 25.07 15.3 59.5 41 2.2 35.9
18:10 1020 30.12 849 25.07 15 59 41 2.1 35.7
18:15 1020 30.12 849 25.07 14.7 58.4 41 1.7 35
18:20 1020 30.12 849 25.07 14.4 57.9 42 1.7 35.1
18:25 1020 30.12 849 25.07 14.1 57.4 43 1.8 35.2
18:30 1020 30.12 849 25.07 13.8 56.8 44 2 35.5
18:35 1020 30.12 849 25.07 13.5 56.2 46 2.1 35.7
18:40 1020 30.12 849 25.07 13.2 55.7 47 2.2 36
18:45 1020 30.12 849 25.07 12.9 55.2 48 2.4 36.3
18:50 1020 30.12 849 25.07 12.7 54.9 49 2.3 36.2
18:55 1020 30.12 849 25.07 12.7 54.8 50 2.6 36.6
19:00 1020 30.12 849 25.07 12.4 54.3 50 2.2 36
19:05 1020 30.12 849 25.07 12.4 54.4 46 1.2 34.1
19:10 1020 30.12 849 25.07 12.4 54.4 46 1.1 34
19:15 1020 30.12 849 25.07 12.4 54.3 45 0.8 33.4
19:20 1020 30.12 849 25.07 12.5 54.5 43 0.4 32.8
19:25 1020 30.12 849 25.07 12.7 54.8 43 0.4 32.7
19:30 1020 30.12 849 25.07 12.7 54.9 42 0.3 32.5
19:35 1020 30.12 849 25.07 13.1 55.6 42 0.6 33.1
19:40 1020 30.12 849 25.07 13.4 56.2 40 0.2 32.4
19:45 1020 30.12 849 25.07 13.5 56.4 41 0.7 33.3
19:50 1020 30.12 849 25.07 13.1 55.5 44 1.3 34.3
19:55 1020 30.12 849 25.07 12.7 54.8 45 1 33.9
20:00 1020 30.12 849 25.07 12.6 54.6 46 1.2 34.2
20:05 1020 30.12 849 25.07 12.5 54.6 45 1.1 34
20:10 1020 30.12 849 25.07 12.7 54.8 45 1.1 33.9
20:15 1020 30.12 849 25.07 12.7 54.8 45 1 33.8
20:20 1020 30.12 849 25.07 12.5 54.6 46 1.4 34.5
20:25 1020 30.12 849 25.07 12.4 54.3 47 1.4 34.4
20:30 1020 30.12 849 25.07 12.5 54.5 46 1.2 34.2
20:35 1020 30.12 849 25.07 12.6 54.7 44 0.8 33.4
20:40 1020 30.12 849 25.07 13.2 55.7 45 1.6 34.9
20:45 1020 30.12 849 25.07 13 55.4 47 2 35.5
20:50 1020 30.12 850 25.1 13.1 55.5 47 2.1 35.8
20:55 1020 30.12 850 25.1 13 55.4 48 2.4 36.4
21:00 1020 30.12 850 25.1 12.9 55.2 49 2.4 36.3
21:05 1020 30.12 850 25.1 12.6 54.7 45 1 33.8
21:10 1020 30.12 850 25.1 12.8 55 47 1.7 35
21:15 1020 30.12 850 25.1 12.4 54.2 50 2.3 36.1
21:20 1020 30.12 850 25.1 12 53.5 51 2.3 36.2
21:25 1020 30.12 850 25.1 11.8 53.2 51 2.1 35.8
21:30 1020 30.12 850 25.1 11.6 52.8 52 2.1 35.8
21:35 1020 30.12 850 25.1 11.4 52.6 52 1.8 35.3
21:40 1020 30.12 850 25.1 11.6 53 52 2.2 35.9
21:45 1020 30.12 850 25.1 11.5 52.7 49 1.2 34.2
21:50 1020 30.12 850 25.1 11.8 53.3 49 1.5 34.7
21:55 1021 30.15 850 25.1 12.1 53.8 48 1.4 34.5
22:00 1021 30.15 850 25.1 12 53.6 49 1.6 34.9
22:05 1021 30.15 850 25.1 11.6 52.9 50 1.6 34.8
22:10 1021 30.15 850 25.1 11.6 52.8 47 0.8 33.5
22:15 1021 30.15 850 25.1 11.8 53.2 46 0.7 33.3
22:20 1021 30.15 850 25.1 11.9 53.5 46 0.7 33.2
22:25 1021 30.15 850 25.1 12.3 54.1 45 0.7 33.2
22:30 1021 30.15 850 25.1 11.9 53.5 46 0.8 33.5
22:35 1021 30.15 850 25.1 11.4 52.6 48 0.9 33.6
22:40 1021 30.15 850 25.1 11.3 52.3 50 1.2 34.1
22:45 1021 30.15 850 25.1 10.8 51.5 51 1.2 34.2
22:50 1021 30.15 850 25.1 10.5 50.9 53 1.3 34.3
22:55 1021 30.15 850 25.1 10.5 50.9 54 1.7 35
23:00 1021 30.15 850 25.1 10.7 51.3 54 1.8 35.2
23:05 1021 30.15 850 25.1 10 50 57 1.9 35.4
23:10 1021 30.15 850 25.1 9.5 49.1 59 1.9 35.5
23:15 1021 30.15 850 25.1 9.3 48.8 58 1.5 34.8
23:20 1021 30.15 850 25.1 9.6 49.3 57 1.5 34.8
23:25 1021 30.15 850 25.1 9.7 49.5 57 1.5 34.8
23:30 1021 30.15 850 25.1 9.6 49.3 57 1.6 34.8
23:35 1021 30.15 850 25.1 9.6 49.2 57 1.4 34.5
23:40 1021 30.15 850 25.1 9.6 49.2 57 1.4 34.6
23:45 1021 30.15 850 25.1 9.6 49.3 56 1.3 34.3
23:50 1021 30.15 850 25.1 9.6 49.3 57 1.6 34.8
23:55 1021 30.15 850 25.1 9.1 48.4 60 1.7 35.1
24:00 1021 30.15 850 25.1 8.7 47.7 60 1.5 34.6